createdAt,value
2023-01-09T00:00:12.520Z,75.89
2023-01-09T00:00:33.595Z,75.97
2023-01-09T00:00:54.635Z,75.98
2023-01-09T00:01:15.713Z,76.05
2023-01-09T00:01:36.854Z,76.07
2023-01-09T00:01:58.116Z,76.11
2023-01-09T00:02:19.190Z,76.19
2023-01-09T00:02:40.375Z,76.17
2023-01-09T00:03:01.504Z,76.21
2023-01-09T00:03:22.604Z,76.24
2023-01-09T00:03:43.694Z,76.24
2023-01-09T00:04:04.889Z,76.26
2023-01-09T00:04:25.929Z,76.29
2023-01-09T00:04:46.993Z,76.27
2023-01-09T00:05:08.100Z,76.25
2023-01-09T00:05:29.212Z,76.33
2023-01-09T00:05:50.326Z,76.33
2023-01-09T00:06:11.464Z,76.40
2023-01-09T00:06:32.582Z,76.45
2023-01-09T00:06:53.881Z,76.51
2023-01-09T00:07:15.195Z,76.51
2023-01-09T00:07:36.329Z,76.52
2023-01-09T00:07:57.478Z,76.56
2023-01-09T00:08:18.750Z,76.58
2023-01-09T00:08:39.963Z,76.60
2023-01-09T00:09:01.150Z,76.63
2023-01-09T00:09:22.401Z,76.63
2023-01-09T00:09:43.644Z,76.61
2023-01-09T00:10:04.785Z,76.63
2023-01-09T00:10:25.836Z,76.63
2023-01-09T00:10:46.905Z,76.64
2023-01-09T00:11:08.324Z,76.73
2023-01-09T00:11:29.436Z,76.67
2023-01-09T00:11:50.481Z,76.72
2023-01-09T00:12:11.555Z,76.72
2023-01-09T00:12:32.700Z,76.74
2023-01-09T00:12:53.781Z,76.78
2023-01-09T00:13:14.843Z,76.81
2023-01-09T00:13:36.019Z,76.82
2023-01-09T00:13:57.140Z,76.90
2023-01-09T00:14:18.192Z,76.84
2023-01-09T00:14:39.438Z,76.89
2023-01-09T00:15:00.503Z,76.85
2023-01-09T00:15:21.559Z,76.94
2023-01-09T00:15:42.639Z,76.96
2023-01-09T00:16:03.717Z,76.92
2023-01-09T00:16:24.801Z,76.91
2023-01-09T00:16:45.908Z,76.90
2023-01-09T00:17:06.953Z,76.87
2023-01-09T00:17:28.055Z,76.90
2023-01-09T00:17:49.271Z,76.93
2023-01-09T00:18:10.333Z,77.02
2023-01-09T00:18:31.394Z,77.03
2023-01-09T00:18:52.468Z,76.99
2023-01-09T00:19:13.528Z,77.04
2023-01-09T00:19:34.617Z,77.01
2023-01-09T00:19:55.681Z,77.03
2023-01-09T00:20:16.753Z,77.05
2023-01-09T00:20:37.797Z,77.08
2023-01-09T00:20:58.863Z,77.12
2023-01-09T00:21:19.946Z,77.14
2023-01-09T00:21:40.991Z,77.14
2023-01-09T00:22:02.060Z,77.14
2023-01-09T00:22:23.110Z,77.08
2023-01-09T00:22:44.173Z,77.12
2023-01-09T00:23:05.286Z,77.09
2023-01-09T00:23:26.346Z,77.07
2023-01-09T00:23:47.413Z,77.11
2023-01-09T00:24:08.496Z,77.09
2023-01-09T00:24:29.583Z,77.10
2023-01-09T00:24:50.663Z,77.07
2023-01-09T00:25:11.754Z,77.11
2023-01-09T00:25:32.820Z,77.12
2023-01-09T00:25:53.881Z,77.15
2023-01-09T00:26:14.947Z,77.16
2023-01-09T00:26:36.022Z,77.17
2023-01-09T00:26:57.087Z,77.18
2023-01-09T00:27:18.147Z,77.17
2023-01-09T00:27:39.198Z,77.19
2023-01-09T00:28:00.272Z,77.19
2023-01-09T00:28:21.364Z,77.22
2023-01-09T00:28:42.448Z,77.23
2023-01-09T00:29:03.528Z,77.25
2023-01-09T00:29:24.557Z,77.26
2023-01-09T00:29:45.636Z,77.22
2023-01-09T00:30:06.703Z,77.23
2023-01-09T00:30:27.811Z,77.24
2023-01-09T00:30:48.968Z,77.31
2023-01-09T00:31:10.005Z,77.29
2023-01-09T00:31:31.068Z,77.33
2023-01-09T00:31:52.140Z,77.30
2023-01-09T00:32:13.199Z,77.28
2023-01-09T00:32:34.271Z,77.25
2023-01-09T00:32:55.370Z,77.28
2023-01-09T00:33:16.394Z,77.25
2023-01-09T00:33:37.474Z,77.27
2023-01-09T00:33:58.540Z,77.32
2023-01-09T00:34:19.601Z,77.34
2023-01-09T00:34:40.675Z,77.31
2023-01-09T00:35:01.738Z,77.32
2023-01-09T00:35:22.804Z,77.33
2023-01-09T00:35:43.873Z,77.34
2023-01-09T00:36:04.934Z,77.38
2023-01-09T00:36:26.069Z,77.42
2023-01-09T00:36:47.147Z,77.41
2023-01-09T00:37:08.193Z,77.40
2023-01-09T00:37:29.320Z,77.42
2023-01-09T00:37:50.394Z,77.35
2023-01-09T00:38:11.587Z,77.37
2023-01-09T00:38:32.619Z,77.36
2023-01-09T00:38:53.847Z,77.39
2023-01-09T00:39:14.916Z,77.40
2023-01-09T00:39:35.981Z,77.48
2023-01-09T00:39:57.088Z,77.45
2023-01-09T00:40:18.124Z,77.49
2023-01-09T00:40:39.171Z,77.52
2023-01-09T00:41:00.258Z,77.54
2023-01-09T00:41:21.303Z,77.51
2023-01-09T00:41:42.385Z,77.51
2023-01-09T00:42:03.440Z,77.58
2023-01-09T00:42:24.496Z,77.53
2023-01-09T00:42:45.569Z,77.60
2023-01-09T00:43:06.642Z,77.54
2023-01-09T00:43:27.704Z,77.53
2023-01-09T00:43:48.778Z,77.58
2023-01-09T00:44:09.938Z,77.58
2023-01-09T00:44:31.006Z,77.64
2023-01-09T00:44:52.083Z,77.63
2023-01-09T00:45:13.162Z,77.69
2023-01-09T00:45:34.244Z,77.66
2023-01-09T00:45:55.345Z,77.66
2023-01-09T00:46:16.407Z,77.69
2023-01-09T00:46:37.659Z,77.67
2023-01-09T00:46:58.748Z,77.75
2023-01-09T00:47:19.929Z,77.77
2023-01-09T00:47:41.020Z,77.76
2023-01-09T00:48:02.197Z,77.82
2023-01-09T00:48:23.252Z,77.81
2023-01-09T00:48:44.321Z,77.84
2023-01-09T00:49:05.447Z,77.86
2023-01-09T00:49:26.951Z,77.93
2023-01-09T00:49:48.025Z,77.90
2023-01-09T00:50:09.093Z,77.94
2023-01-09T00:50:30.154Z,77.94
2023-01-09T00:50:51.253Z,77.95
2023-01-09T00:51:12.315Z,77.98
2023-01-09T00:51:33.365Z,77.95
2023-01-09T00:51:54.431Z,77.91
2023-01-09T00:52:15.481Z,77.92
2023-01-09T00:52:36.561Z,77.96
2023-01-09T00:52:57.619Z,77.96
2023-01-09T00:53:18.687Z,78.00
2023-01-09T00:53:39.755Z,78.00
2023-01-09T00:54:00.827Z,78.00
2023-01-09T00:54:21.891Z,78.03
2023-01-09T00:54:43.119Z,78.06
2023-01-09T00:55:04.213Z,78.06
2023-01-09T00:55:25.250Z,78.10
2023-01-09T00:55:46.332Z,78.10
2023-01-09T00:56:07.397Z,78.11
2023-01-09T00:56:28.481Z,78.15
2023-01-09T00:56:49.562Z,78.13
2023-01-09T00:57:10.616Z,78.17
2023-01-09T00:57:31.679Z,78.21
2023-01-09T00:57:52.734Z,78.22
2023-01-09T00:58:13.804Z,78.15
2023-01-09T00:58:34.903Z,78.18
2023-01-09T00:58:55.935Z,78.19
2023-01-09T00:59:17.005Z,78.19
2023-01-09T00:59:38.067Z,78.20
2023-01-09T00:59:59.145Z,78.22
2023-01-09T01:00:20.231Z,78.22
2023-01-09T01:00:41.280Z,78.27
2023-01-09T01:01:02.447Z,78.28
2023-01-09T01:01:23.603Z,78.30
2023-01-09T01:01:44.828Z,78.29
2023-01-09T01:02:06.151Z,78.27
2023-01-09T01:02:27.413Z,78.30
2023-01-09T01:02:48.516Z,78.37
2023-01-09T01:03:09.566Z,78.33
2023-01-09T01:03:30.638Z,78.39
2023-01-09T01:03:51.717Z,78.43
2023-01-09T01:04:12.777Z,78.40
2023-01-09T01:04:33.843Z,78.42
2023-01-09T01:04:54.950Z,78.44
2023-01-09T01:05:16.223Z,78.50
2023-01-09T01:05:37.288Z,78.49
2023-01-09T01:05:58.367Z,78.50
2023-01-09T01:06:19.460Z,78.50
2023-01-09T01:06:40.500Z,78.55
2023-01-09T01:07:01.569Z,78.55
2023-01-09T01:07:22.643Z,78.56
2023-01-09T01:07:43.707Z,78.56
2023-01-09T01:08:04.777Z,78.59
2023-01-09T01:08:25.877Z,78.62
2023-01-09T01:08:46.937Z,78.57
2023-01-09T01:09:08.001Z,78.59
2023-01-09T01:09:29.057Z,78.62
2023-01-09T01:09:50.123Z,78.62
2023-01-09T01:10:11.220Z,78.59
2023-01-09T01:10:32.279Z,78.63
2023-01-09T01:10:53.379Z,78.61
2023-01-09T01:11:14.459Z,78.59
2023-01-09T01:11:35.552Z,78.63
2023-01-09T01:11:56.623Z,78.68
2023-01-09T01:12:17.658Z,78.62
2023-01-09T01:12:38.748Z,78.62
2023-01-09T01:12:59.807Z,78.61
2023-01-09T01:13:20.869Z,78.67
2023-01-09T01:13:41.938Z,78.68
2023-01-09T01:14:02.992Z,78.65
2023-01-09T01:14:24.049Z,78.68
2023-01-09T01:14:45.117Z,78.64
2023-01-09T01:15:06.184Z,78.67
2023-01-09T01:15:27.226Z,78.65
2023-01-09T01:15:48.455Z,78.61
2023-01-09T01:16:09.573Z,78.65
2023-01-09T01:16:30.706Z,78.59
2023-01-09T01:16:51.815Z,78.64
2023-01-09T01:17:12.845Z,78.63
2023-01-09T01:17:33.925Z,78.64
2023-01-09T01:17:54.963Z,78.66
2023-01-09T01:18:16.036Z,78.68
2023-01-09T01:18:37.089Z,78.70
2023-01-09T01:18:58.158Z,78.70
2023-01-09T01:19:19.214Z,78.65
2023-01-09T01:19:40.281Z,78.60
2023-01-09T01:20:01.328Z,78.63
2023-01-09T01:20:22.420Z,78.65
2023-01-09T01:20:43.544Z,78.64
2023-01-09T01:21:04.630Z,78.64
2023-01-09T01:21:25.692Z,78.63
2023-01-09T01:21:46.759Z,78.66
2023-01-09T01:22:07.828Z,78.67
2023-01-09T01:22:28.895Z,78.66
2023-01-09T01:22:49.966Z,78.67
2023-01-09T01:23:11.031Z,78.65
2023-01-09T01:23:32.100Z,78.68
2023-01-09T01:23:53.181Z,78.66
2023-01-09T01:24:14.256Z,78.65
2023-01-09T01:24:35.326Z,78.69
2023-01-09T01:24:56.381Z,78.69
2023-01-09T01:25:17.487Z,78.71
2023-01-09T01:25:38.519Z,78.67
2023-01-09T01:25:59.629Z,78.69
2023-01-09T01:26:20.807Z,78.67
2023-01-09T01:26:41.873Z,78.68
2023-01-09T01:27:03.009Z,78.67
2023-01-09T01:27:24.056Z,78.69
2023-01-09T01:27:45.132Z,78.69
2023-01-09T01:28:06.192Z,78.69
2023-01-09T01:28:27.264Z,78.73
2023-01-09T01:28:48.315Z,78.69
2023-01-09T01:29:09.364Z,78.71
2023-01-09T01:29:30.433Z,78.72
2023-01-09T01:29:51.487Z,78.74
2023-01-09T01:30:12.563Z,78.71
2023-01-09T01:30:33.649Z,78.71
2023-01-09T01:30:54.832Z,78.70
2023-01-09T01:31:15.894Z,78.71
2023-01-09T01:31:37.135Z,78.68
2023-01-09T01:31:58.180Z,78.71
2023-01-09T01:32:19.251Z,78.71
2023-01-09T01:32:40.326Z,78.73
2023-01-09T01:33:01.393Z,78.66
2023-01-09T01:33:22.439Z,78.71
2023-01-09T01:33:43.505Z,78.64
2023-01-09T01:34:04.554Z,78.65
2023-01-09T01:34:25.607Z,78.64
2023-01-09T01:34:47.830Z,78.65
2023-01-09T01:35:09.010Z,78.71
2023-01-09T01:35:30.045Z,78.71
2023-01-09T01:35:51.109Z,78.70
2023-01-09T01:36:12.178Z,78.65
2023-01-09T01:36:33.239Z,78.68
2023-01-09T01:36:54.337Z,78.68
2023-01-09T01:37:15.389Z,78.70
2023-01-09T01:37:36.467Z,78.70
2023-01-09T01:37:57.512Z,78.70
2023-01-09T01:38:18.575Z,78.69
2023-01-09T01:38:39.634Z,78.69
2023-01-09T01:39:00.693Z,78.72
2023-01-09T01:39:21.755Z,78.72
2023-01-09T01:39:42.805Z,78.71
2023-01-09T01:40:03.863Z,78.71
2023-01-09T01:40:24.958Z,78.74
2023-01-09T01:40:46.019Z,78.73
2023-01-09T01:41:07.125Z,78.71
2023-01-09T01:41:28.187Z,78.74
2023-01-09T01:41:49.233Z,78.75
2023-01-09T01:42:10.315Z,78.75
2023-01-09T01:42:31.370Z,78.72
2023-01-09T01:42:52.433Z,78.77
2023-01-09T01:43:13.499Z,78.72
2023-01-09T01:43:34.560Z,78.75
2023-01-09T01:43:55.626Z,78.78
2023-01-09T01:44:16.687Z,78.78
2023-01-09T01:44:37.750Z,78.79
2023-01-09T01:44:58.845Z,78.79
2023-01-09T01:45:19.879Z,78.73
2023-01-09T01:45:40.997Z,78.78
2023-01-09T01:46:02.072Z,78.76
2023-01-09T01:46:23.103Z,78.78
2023-01-09T01:46:44.185Z,78.77
2023-01-09T01:47:05.252Z,78.78
2023-01-09T01:47:26.494Z,78.75
2023-01-09T01:47:47.564Z,78.70
2023-01-09T01:48:08.623Z,78.77
2023-01-09T01:48:29.714Z,78.70
2023-01-09T01:48:50.790Z,78.71
2023-01-09T01:49:11.867Z,78.71
2023-01-09T01:49:32.935Z,78.77
2023-01-09T01:49:53.990Z,78.70
2023-01-09T01:50:15.059Z,78.71
2023-01-09T01:50:36.143Z,78.76
2023-01-09T01:50:57.192Z,78.77
2023-01-09T01:51:18.256Z,78.70
2023-01-09T01:51:39.329Z,78.70
2023-01-09T01:52:00.395Z,78.69
2023-01-09T01:52:21.447Z,78.69
2023-01-09T01:52:42.532Z,78.70
2023-01-09T01:53:03.603Z,78.66
2023-01-09T01:53:24.664Z,78.68
2023-01-09T01:53:45.730Z,78.73
2023-01-09T01:54:06.796Z,78.71
2023-01-09T01:54:27.869Z,78.70
2023-01-09T01:54:48.958Z,78.74
2023-01-09T01:55:10.052Z,78.76
2023-01-09T01:55:31.113Z,78.73
2023-01-09T01:55:52.170Z,78.77
2023-01-09T01:56:13.257Z,78.76
2023-01-09T01:56:34.323Z,78.77
2023-01-09T01:56:55.383Z,78.72
2023-01-09T01:57:16.444Z,78.75
2023-01-09T01:57:37.511Z,78.80
2023-01-09T01:57:58.599Z,78.73
2023-01-09T01:58:19.665Z,78.76
2023-01-09T01:58:40.814Z,78.75
2023-01-09T01:59:01.894Z,78.75
2023-01-09T01:59:22.939Z,78.78
2023-01-09T01:59:43.992Z,78.76
2023-01-09T02:00:05.052Z,78.76
2023-01-09T02:00:26.101Z,78.77
2023-01-09T02:00:47.198Z,78.82
2023-01-09T02:01:08.337Z,78.76
2023-01-09T02:01:29.510Z,78.69
2023-01-09T02:01:50.762Z,78.70
2023-01-09T02:02:12.089Z,78.76
2023-01-09T02:02:33.186Z,78.72
2023-01-09T02:02:54.329Z,78.74
2023-01-09T02:03:15.414Z,78.72
2023-01-09T02:03:36.489Z,78.76
2023-01-09T02:03:57.537Z,78.81
2023-01-09T02:04:18.620Z,78.76
2023-01-09T02:04:39.710Z,78.78
2023-01-09T02:05:00.792Z,78.76
2023-01-09T02:05:21.858Z,78.78
2023-01-09T02:05:42.933Z,78.78
2023-01-09T02:06:03.995Z,78.74
2023-01-09T02:06:25.045Z,78.75
2023-01-09T02:06:46.138Z,78.74
2023-01-09T02:07:07.212Z,78.69
2023-01-09T02:07:28.295Z,78.68
2023-01-09T02:07:49.357Z,78.64
2023-01-09T02:08:10.400Z,78.64
2023-01-09T02:08:31.507Z,78.58
2023-01-09T02:08:52.552Z,78.59
2023-01-09T02:09:13.616Z,78.48
2023-01-09T02:09:34.686Z,78.49
2023-01-09T02:09:55.760Z,78.47
2023-01-09T02:10:16.842Z,78.44
2023-01-09T02:10:37.883Z,78.44
2023-01-09T02:10:58.923Z,78.46
2023-01-09T02:11:19.980Z,78.43
2023-01-09T02:11:41.051Z,78.42
2023-01-09T02:12:02.117Z,78.36
2023-01-09T02:12:23.189Z,78.44
2023-01-09T02:12:44.227Z,78.43
2023-01-09T02:13:05.288Z,78.42
2023-01-09T02:13:26.360Z,78.41
2023-01-09T02:13:47.453Z,78.42
2023-01-09T02:14:08.517Z,78.43
2023-01-09T02:14:29.571Z,78.44
2023-01-09T02:14:50.656Z,78.40
2023-01-09T02:15:11.715Z,78.40
2023-01-09T02:15:32.774Z,78.43
2023-01-09T02:15:53.873Z,78.42
2023-01-09T02:16:15.002Z,78.40
2023-01-09T02:16:36.066Z,78.38
2023-01-09T02:16:57.181Z,78.38
2023-01-09T02:17:18.200Z,78.40
2023-01-09T02:17:39.272Z,78.35
2023-01-09T02:18:00.413Z,78.44
2023-01-09T02:18:21.460Z,78.40
2023-01-09T02:18:42.509Z,78.36
2023-01-09T02:19:03.730Z,78.39
2023-01-09T02:19:24.778Z,78.43
2023-01-09T02:19:45.834Z,78.40
2023-01-09T02:20:06.884Z,78.45
2023-01-09T02:20:27.958Z,78.38
2023-01-09T02:20:49.014Z,78.37
2023-01-09T02:21:10.134Z,78.36
2023-01-09T02:21:31.183Z,78.42
2023-01-09T02:21:52.248Z,78.39
2023-01-09T02:22:13.303Z,78.44
2023-01-09T02:22:34.390Z,78.48
2023-01-09T02:22:55.433Z,78.49
2023-01-09T02:23:16.485Z,78.46
2023-01-09T02:23:37.552Z,78.44
2023-01-09T02:23:58.616Z,78.44
2023-01-09T02:24:19.721Z,78.40
2023-01-09T02:24:40.798Z,78.44
2023-01-09T02:25:01.886Z,78.43
2023-01-09T02:25:22.981Z,78.39
2023-01-09T02:25:44.054Z,78.42
2023-01-09T02:26:05.097Z,78.37
2023-01-09T02:26:26.230Z,78.37
2023-01-09T02:26:47.255Z,78.36
2023-01-09T02:27:08.309Z,78.40
2023-01-09T02:27:29.371Z,78.42
2023-01-09T02:27:50.525Z,78.39
2023-01-09T02:28:11.573Z,78.36
2023-01-09T02:28:32.678Z,78.33
2023-01-09T02:28:53.733Z,78.38
2023-01-09T02:29:14.812Z,78.37
2023-01-09T02:29:36.027Z,78.39
2023-01-09T02:29:57.148Z,78.34
2023-01-09T02:30:18.252Z,78.35
2023-01-09T02:30:39.318Z,78.36
2023-01-09T02:31:00.373Z,78.30
2023-01-09T02:31:21.495Z,78.26
2023-01-09T02:31:42.588Z,78.30
2023-01-09T02:32:03.676Z,78.20
2023-01-09T02:32:24.731Z,78.26
2023-01-09T02:32:45.794Z,78.22
2023-01-09T02:33:06.885Z,78.15
2023-01-09T02:33:27.956Z,78.18
2023-01-09T02:33:49.007Z,78.16
2023-01-09T02:34:10.075Z,78.16
2023-01-09T02:34:31.162Z,78.12
2023-01-09T02:34:52.246Z,78.11
2023-01-09T02:35:13.301Z,78.12
2023-01-09T02:35:34.359Z,78.11
2023-01-09T02:35:55.676Z,78.06
2023-01-09T02:36:16.746Z,78.06
2023-01-09T02:36:37.819Z,78.08
2023-01-09T02:36:58.871Z,78.01
2023-01-09T02:37:19.970Z,77.99
2023-01-09T02:37:41.049Z,78.00
2023-01-09T02:38:02.250Z,77.99
2023-01-09T02:38:23.279Z,77.97
2023-01-09T02:38:44.343Z,77.96
2023-01-09T02:39:05.415Z,77.98
2023-01-09T02:39:26.470Z,77.92
2023-01-09T02:39:47.544Z,77.96
2023-01-09T02:40:08.641Z,77.92
2023-01-09T02:40:29.722Z,77.91
2023-01-09T02:40:50.800Z,77.87
2023-01-09T02:41:11.834Z,77.88
2023-01-09T02:41:32.893Z,77.87
2023-01-09T02:41:53.984Z,77.94
2023-01-09T02:42:15.030Z,77.90
2023-01-09T02:42:36.103Z,77.82
2023-01-09T02:42:57.154Z,77.86
2023-01-09T02:43:18.220Z,77.82
2023-01-09T02:43:39.290Z,77.78
2023-01-09T02:44:00.365Z,77.76
2023-01-09T02:44:21.442Z,77.70
2023-01-09T02:44:42.499Z,77.73
2023-01-09T02:45:03.586Z,77.69
2023-01-09T02:45:24.762Z,77.74
2023-01-09T02:45:45.854Z,77.72
2023-01-09T02:46:06.951Z,77.70
2023-01-09T02:46:27.990Z,77.68
2023-01-09T02:46:49.043Z,77.67
2023-01-09T02:47:10.109Z,77.64
2023-01-09T02:47:31.237Z,77.60
2023-01-09T02:47:52.273Z,77.61
2023-01-09T02:48:13.327Z,77.61
2023-01-09T02:48:34.406Z,77.59
2023-01-09T02:48:55.471Z,77.59
2023-01-09T02:49:16.545Z,77.59
2023-01-09T02:49:37.590Z,77.57
2023-01-09T02:49:58.655Z,77.61
2023-01-09T02:50:19.715Z,77.58
2023-01-09T02:50:40.803Z,77.57
2023-01-09T02:51:01.877Z,77.61
2023-01-09T02:51:22.934Z,77.56
2023-01-09T02:51:44.003Z,77.50
2023-01-09T02:52:05.049Z,77.49
2023-01-09T02:52:26.138Z,77.45
2023-01-09T02:52:47.175Z,77.47
2023-01-09T02:53:08.235Z,77.41
2023-01-09T02:53:29.309Z,77.33
2023-01-09T02:53:50.504Z,77.35
2023-01-09T02:54:11.587Z,77.32
2023-01-09T02:54:32.648Z,77.29
2023-01-09T02:54:53.708Z,77.22
2023-01-09T02:55:14.778Z,77.24
2023-01-09T02:55:35.833Z,77.13
2023-01-09T02:55:57.077Z,77.14
2023-01-09T02:56:18.117Z,77.10
2023-01-09T02:56:39.198Z,77.07
2023-01-09T02:57:00.269Z,77.09
2023-01-09T02:57:21.338Z,77.09
2023-01-09T02:57:42.398Z,77.09
2023-01-09T02:58:03.477Z,77.01
2023-01-09T02:58:24.557Z,77.07
2023-01-09T02:58:45.624Z,77.09
2023-01-09T02:59:06.682Z,77.06
2023-01-09T02:59:27.752Z,77.04
2023-01-09T02:59:48.814Z,76.99
2023-01-09T03:00:09.870Z,77.06
2023-01-09T03:00:30.930Z,77.04
2023-01-09T03:00:52.042Z,77.04
2023-01-09T03:01:13.206Z,77.01
2023-01-09T03:01:34.404Z,77.00
2023-01-09T03:01:55.619Z,77.03
2023-01-09T03:02:16.767Z,77.01
2023-01-09T03:02:37.902Z,77.03
2023-01-09T03:02:59.018Z,77.00
2023-01-09T03:03:20.074Z,77.00
2023-01-09T03:03:41.128Z,77.02
2023-01-09T03:04:02.239Z,77.03
2023-01-09T03:04:23.312Z,77.06
2023-01-09T03:04:44.395Z,77.10
2023-01-09T03:05:05.446Z,77.06
2023-01-09T03:05:26.566Z,77.06
2023-01-09T03:05:47.618Z,77.09
2023-01-09T03:06:08.677Z,77.10
2023-01-09T03:06:29.753Z,77.14
2023-01-09T03:06:50.867Z,77.15
2023-01-09T03:07:11.907Z,77.12
2023-01-09T03:07:32.981Z,77.13
2023-01-09T03:07:54.057Z,77.08
2023-01-09T03:08:15.121Z,77.14
2023-01-09T03:08:36.175Z,77.17
2023-01-09T03:08:57.269Z,77.15
2023-01-09T03:09:18.334Z,77.20
2023-01-09T03:09:39.429Z,77.23
2023-01-09T03:10:00.495Z,77.22
2023-01-09T03:10:21.556Z,77.21
2023-01-09T03:10:42.614Z,77.23
2023-01-09T03:11:03.784Z,77.24
2023-01-09T03:11:24.798Z,77.27
2023-01-09T03:11:45.892Z,77.30
2023-01-09T03:12:06.991Z,77.27
2023-01-09T03:12:28.015Z,77.28
2023-01-09T03:12:49.082Z,77.29
2023-01-09T03:13:10.141Z,77.33
2023-01-09T03:13:31.237Z,77.29
2023-01-09T03:13:52.308Z,77.33
2023-01-09T03:14:13.351Z,77.32
2023-01-09T03:14:34.406Z,77.31
2023-01-09T03:14:55.465Z,77.33
2023-01-09T03:15:16.570Z,77.39
2023-01-09T03:15:37.606Z,77.42
2023-01-09T03:15:58.672Z,77.47
2023-01-09T03:16:19.839Z,77.44
2023-01-09T03:16:40.888Z,77.46
2023-01-09T03:17:02.136Z,77.44
2023-01-09T03:17:23.191Z,77.44
2023-01-09T03:17:44.255Z,77.45
2023-01-09T03:18:05.321Z,77.44
2023-01-09T03:18:26.405Z,77.42
2023-01-09T03:18:47.476Z,77.44
2023-01-09T03:19:08.585Z,77.50
2023-01-09T03:19:29.619Z,77.49
2023-01-09T03:19:50.672Z,77.48
2023-01-09T03:20:11.752Z,77.42
2023-01-09T03:20:32.800Z,77.42
2023-01-09T03:20:53.871Z,77.43
2023-01-09T03:21:14.925Z,77.46
2023-01-09T03:21:35.978Z,77.49
2023-01-09T03:21:57.045Z,77.53
2023-01-09T03:22:18.157Z,77.53
2023-01-09T03:22:39.210Z,77.55
2023-01-09T03:23:00.285Z,77.53
2023-01-09T03:23:21.316Z,77.53
2023-01-09T03:23:42.408Z,77.52
2023-01-09T03:24:03.445Z,77.54
2023-01-09T03:24:24.509Z,77.50
2023-01-09T03:24:45.570Z,77.56
2023-01-09T03:25:06.653Z,77.61
2023-01-09T03:25:27.700Z,77.59
2023-01-09T03:25:48.750Z,77.59
2023-01-09T03:26:09.839Z,77.57
2023-01-09T03:26:30.897Z,77.59
2023-01-09T03:26:51.987Z,77.61
2023-01-09T03:27:13.125Z,77.56
2023-01-09T03:27:34.249Z,77.64
2023-01-09T03:27:55.385Z,77.62
2023-01-09T03:28:16.447Z,77.60
2023-01-09T03:28:37.509Z,77.63
2023-01-09T03:28:58.589Z,77.60
2023-01-09T03:29:19.666Z,77.64
2023-01-09T03:29:40.724Z,77.65
2023-01-09T03:30:01.788Z,77.62
2023-01-09T03:30:22.863Z,77.69
2023-01-09T03:30:43.929Z,77.64
2023-01-09T03:31:05.017Z,77.71
2023-01-09T03:31:26.138Z,77.67
2023-01-09T03:31:47.237Z,77.63
2023-01-09T03:32:08.290Z,77.67
2023-01-09T03:32:29.333Z,77.69
2023-01-09T03:32:50.433Z,77.70
2023-01-09T03:33:11.490Z,77.71
2023-01-09T03:33:32.580Z,77.71
2023-01-09T03:33:53.691Z,77.69
2023-01-09T03:34:14.735Z,77.68
2023-01-09T03:34:35.781Z,77.65
2023-01-09T03:34:56.845Z,77.69
2023-01-09T03:35:17.929Z,77.65
2023-01-09T03:35:38.983Z,77.66
2023-01-09T03:36:00.043Z,77.67
2023-01-09T03:36:21.117Z,77.67
2023-01-09T03:36:42.178Z,77.69
2023-01-09T03:37:03.246Z,77.70
2023-01-09T03:37:24.310Z,77.69
2023-01-09T03:37:45.381Z,77.69
2023-01-09T03:38:07.962Z,77.70
2023-01-09T03:38:29.087Z,77.75
2023-01-09T03:38:50.157Z,77.75
2023-01-09T03:39:11.212Z,77.72
2023-01-09T03:39:32.303Z,77.74
2023-01-09T03:39:53.377Z,77.66
2023-01-09T03:40:14.544Z,77.62
2023-01-09T03:40:35.632Z,77.67
2023-01-09T03:40:56.747Z,77.67
2023-01-09T03:41:17.797Z,77.73
2023-01-09T03:41:38.850Z,77.72
2023-01-09T03:41:59.916Z,77.69
2023-01-09T03:42:20.961Z,77.64
2023-01-09T03:42:42.042Z,77.61
2023-01-09T03:43:03.118Z,77.66
2023-01-09T03:43:24.236Z,77.64
2023-01-09T03:43:45.287Z,77.61
2023-01-09T03:44:06.353Z,77.61
2023-01-09T03:44:27.432Z,77.62
2023-01-09T03:44:48.488Z,77.59
2023-01-09T03:45:09.543Z,77.63
2023-01-09T03:45:30.643Z,77.59
2023-01-09T03:45:51.728Z,77.58
2023-01-09T03:46:12.811Z,77.50
2023-01-09T03:46:33.840Z,77.46
2023-01-09T03:46:54.893Z,77.37
2023-01-09T03:47:15.943Z,77.40
2023-01-09T03:47:37.007Z,77.42
2023-01-09T03:47:58.064Z,77.41
2023-01-09T03:48:19.118Z,77.38
2023-01-09T03:48:40.209Z,77.29
2023-01-09T03:49:01.258Z,77.36
2023-01-09T03:49:22.325Z,77.33
2023-01-09T03:49:43.377Z,77.32
2023-01-09T03:50:04.434Z,77.33
2023-01-09T03:50:25.619Z,77.33
2023-01-09T03:50:46.660Z,77.29
2023-01-09T03:51:07.724Z,77.31
2023-01-09T03:51:28.787Z,77.29
2023-01-09T03:51:49.851Z,77.28
2023-01-09T03:52:10.915Z,77.32
2023-01-09T03:52:31.989Z,77.28
2023-01-09T03:52:53.053Z,77.35
2023-01-09T03:53:14.124Z,77.27
2023-01-09T03:53:35.182Z,77.31
2023-01-09T03:53:56.467Z,77.35
2023-01-09T03:54:17.507Z,77.35
2023-01-09T03:54:38.555Z,77.35
2023-01-09T03:54:59.609Z,77.36
2023-01-09T03:55:20.672Z,77.33
2023-01-09T03:55:41.734Z,77.29
2023-01-09T03:56:02.806Z,77.28
2023-01-09T03:56:23.878Z,77.26
2023-01-09T03:56:44.901Z,77.23
2023-01-09T03:57:06.007Z,77.28
2023-01-09T03:57:27.065Z,77.27
2023-01-09T03:57:48.114Z,77.24
2023-01-09T03:58:09.162Z,77.21
2023-01-09T03:58:30.229Z,77.19
2023-01-09T03:58:51.278Z,77.14
2023-01-09T03:59:12.358Z,77.11
2023-01-09T03:59:33.468Z,77.00
2023-01-09T03:59:54.529Z,77.03
2023-01-09T04:00:15.581Z,76.98
2023-01-09T04:00:36.651Z,76.95
2023-01-09T04:00:57.789Z,76.95
2023-01-09T04:01:18.943Z,76.94
2023-01-09T04:01:40.189Z,76.93
2023-01-09T04:02:03.716Z,76.96
2023-01-09T04:02:25.098Z,76.96
2023-01-09T04:02:46.155Z,76.90
2023-01-09T04:03:07.217Z,76.88
2023-01-09T04:03:28.303Z,76.87
2023-01-09T04:03:49.436Z,76.83
2023-01-09T04:04:10.544Z,76.78
2023-01-09T04:04:31.623Z,76.74
2023-01-09T04:04:52.697Z,76.75
2023-01-09T04:05:13.782Z,76.66
2023-01-09T04:05:34.828Z,76.64
2023-01-09T04:05:55.913Z,76.70
2023-01-09T04:06:16.996Z,76.69
2023-01-09T04:06:38.093Z,76.67
2023-01-09T04:06:59.136Z,76.62
2023-01-09T04:07:20.241Z,76.57
2023-01-09T04:07:41.309Z,76.56
2023-01-09T04:08:02.356Z,76.56
2023-01-09T04:08:23.438Z,76.59
2023-01-09T04:08:44.497Z,76.58
2023-01-09T04:09:05.554Z,76.54
2023-01-09T04:09:26.632Z,76.58
2023-01-09T04:09:47.849Z,76.65
2023-01-09T04:10:08.911Z,76.62
2023-01-09T04:10:30.003Z,76.67
2023-01-09T04:10:51.119Z,76.67
2023-01-09T04:11:12.169Z,76.65
2023-01-09T04:11:33.256Z,76.67
2023-01-09T04:11:54.324Z,76.63
2023-01-09T04:12:15.404Z,76.58
2023-01-09T04:12:36.483Z,76.61
2023-01-09T04:12:57.535Z,76.63
2023-01-09T04:13:18.630Z,76.61
2023-01-09T04:13:39.672Z,76.70
2023-01-09T04:14:00.806Z,76.76
2023-01-09T04:14:21.866Z,76.76
2023-01-09T04:14:42.956Z,76.80
2023-01-09T04:15:04.149Z,76.69
2023-01-09T04:15:25.235Z,76.66
2023-01-09T04:15:46.300Z,76.62
2023-01-09T04:16:07.420Z,76.65
2023-01-09T04:16:28.513Z,76.59
2023-01-09T04:16:49.579Z,76.54
2023-01-09T04:17:10.639Z,76.44
2023-01-09T04:17:31.714Z,76.42
2023-01-09T04:17:52.788Z,76.41
2023-01-09T04:18:13.861Z,76.38
2023-01-09T04:18:34.922Z,76.32
2023-01-09T04:18:56.003Z,76.26
2023-01-09T04:19:17.058Z,76.23
2023-01-09T04:19:38.122Z,76.24
2023-01-09T04:19:59.201Z,76.25
2023-01-09T04:20:20.287Z,76.21
2023-01-09T04:20:41.353Z,76.16
2023-01-09T04:21:02.425Z,76.13
2023-01-09T04:21:23.492Z,76.08
2023-01-09T04:21:44.552Z,76.06
2023-01-09T04:22:05.615Z,76.03
2023-01-09T04:22:26.688Z,76.01
2023-01-09T04:22:47.766Z,76.03
2023-01-09T04:23:08.838Z,76.00
2023-01-09T04:23:29.925Z,75.94
2023-01-09T04:23:51.016Z,75.90
2023-01-09T04:24:12.081Z,75.88
2023-01-09T04:24:33.151Z,75.94
2023-01-09T04:24:54.203Z,75.93
2023-01-09T04:25:15.266Z,75.97
2023-01-09T04:25:36.391Z,75.99
2023-01-09T04:25:57.455Z,75.98
2023-01-09T04:26:18.512Z,75.98
2023-01-09T04:26:39.632Z,76.02
2023-01-09T04:27:00.658Z,75.98
2023-01-09T04:27:21.722Z,76.05
2023-01-09T04:27:42.788Z,75.95
2023-01-09T04:28:03.877Z,75.96
2023-01-09T04:28:24.933Z,76.00
2023-01-09T04:28:45.983Z,76.06
2023-01-09T04:29:07.076Z,76.00
2023-01-09T04:29:28.122Z,76.02
2023-01-09T04:29:49.249Z,76.09
2023-01-09T04:30:10.296Z,76.08
2023-01-09T04:30:31.368Z,76.06
2023-01-09T04:30:52.469Z,76.04
2023-01-09T04:31:13.578Z,76.03
2023-01-09T04:31:34.717Z,76.07